LPMALPPS

Guest
Details From LPMA - Madeira
To LPPS - Porto Santo
Flight Number -
Tags Routegen Generated
Created
Modified
Stats Distance 31 nm / 58 km
Max Altitude 100 ft / 30 m
Waypoints 5
Social Downloads 16
Likes 0
Share

Download

Looking for another format? Having issues loading an existing format? Contact us
Advertisement - Login to hide

Notes

Departing runway 4 LPMA. Arriving runway 17 LPPS.

Route

LPMA +32.76_-016.71 +32.87_-016.53 +32.99_-016.35 LPPS

ID Type Via Altitude (ft/m) Position (lat/lon) Dist (leg/tot) Name
O LPMA APT - 0 / 0 32.70641 / -16.76481 - / 0 nm
+32.76_-016.71 LATLON - 100 / 30 32.75933 / -16.70613 4 / 4 nm
+32.87_-016.53 LATLON - 100 / 30 32.87343 / -16.52635 11 / 15 nm
+32.99_-016.35 LATLON - 100 / 30 32.98754 / -16.34658 11 / 27 nm
O LPPS APT - 0 / 0 33.05987 / -16.34941 4 / 31 nm

Altitude Profile

Advertisement - Login to hide

LPMA

Details ICAO LPMA (FNC)
Name Madeira/Funchal - Cristiano Ronaldo
Region Portugal
Timezone Atlantic/Madeira (UTC+1.0)
Stats Elevation 189 ft / 58 m (AMSL)
Location 32.697900° -16.774400°
Runways 1
Magnetic Variation 4.638° W

METAR

LPMA 290700Z 02009KT 9999 BKN015 SCT030 20/16 Q1019

Decode

TAF

TAF LPMA 290500Z 2906/3006 01012KT 9999 SCT015 TEMPO 2906/3006 BKN015 PROB30 TEMPO 2906/3006 01015G25KT 6000 DZ BKN013

Decode

Departure Runways

ID Width Length Bearing (true/mag) Surface Threshold Overrun Markings Lighting
05 148 ft / 45 m 9,133 ft / 2,784 m 44.60° / 49.23° ASPHALT 482 ft / 147 m 0 ft / 0 m PREC-APP CENTERLINE EDGE THRESHOLD TDZ REIL-OMNI
23 148 ft / 45 m 9,133 ft / 2,784 m 224.61° / 229.25° ASPHALT 482 ft / 147 m 0 ft / 0 m PREC-APP CENTERLINE EDGE THRESHOLD TDZ REIL-OMNI

LPPS

Details ICAO LPPS (PXO)
Name Porto Santo
Region Portugal
Timezone Atlantic/Madeira (UTC+1.0)
Stats Elevation 340 ft / 104 m (AMSL)
Location 33.073300° -16.349800°
Runways 1
Magnetic Variation 4.475° W

METAR

LPPS 290700Z 01010KT 9999 FEW015 20/15 Q1019

Decode

TAF

TAF LPPS 290500Z 2906/3012 03012KT 9999 FEW015 SCT030 TEMPO 2906/3012 BKN012 PROB30 TEMPO 2906/3009 5000 DZ BR SCT006 BKN010

Decode

Destination Runways

ID Width Length Bearing (true/mag) Surface Threshold Overrun Markings Lighting
18 140 ft / 43 m 9,856 ft / 3,004 m 178.12° / 182.59° ASPHALT 0 ft / 0 m 0 ft / 0 m PREC-APP EDGE THRESHOLD SALS
36 140 ft / 43 m 9,856 ft / 3,004 m 358.12° / 2.59° ASPHALT 0 ft / 0 m 0 ft / 0 m PREC-APP EDGE THRESHOLD SALS

Popular Alternatives